Time;durP1;ratioP1;P1;durP2;ratioP2;P2;SDS_P1;SDS_P2;PMS_P1;PMS_P2;Temp;Humidity;BMP_temperature;BMP_pressure;BME280_temperature;BME280_humidity;BME280_pressure;Samples;Min_cycle;Max_cycle;Signal;HPM_P1;HPM_P2
2022/03/20 00:00:45;;;;;;;19.50;16.90;;;;;;;2.05;82.15;98372.09;5004333;28;20548;-54
2022/03/20 00:03:15;;;;;;;18.33;15.93;;;;;;;2.03;83.55;98373.97;5006104;28;20762;-51
2022/03/20 00:05:43;;;;;;;21.67;17.67;;;;;;;2.00;84.75;98368.94;5003921;28;20425;-51
2022/03/20 00:08:13;;;;;;;20.10;17.30;;;;;;;2.01;87.52;98371.44;4969721;28;20236;-50
2022/03/20 00:10:44;;;;;;;23.27;17.57;;;;;;;1.96;88.14;98370.09;5007657;28;20755;-54
2022/03/20 00:13:15;;;;;;;22.10;17.87;;;;;;;1.94;91.34;98372.78;4957668;28;21076;-48
2022/03/20 00:15:45;;;;;;;21.17;17.80;;;;;;;1.96;90.90;98364.88;5002154;28;20205;-49
2022/03/20 00:18:15;;;;;;;23.53;18.70;;;;;;;1.94;91.54;98371.97;5001804;28;20996;-49
2022/03/20 00:20:45;;;;;;;20.63;17.27;;;;;;;1.90;93.65;98365.28;5006477;28;20295;-51
2022/03/20 00:23:16;;;;;;;20.40;17.90;;;;;;;1.97;94.21;98364.75;4974231;28;21063;-50
2022/03/20 00:25:45;;;;;;;22.20;18.43;;;;;;;1.92;95.37;98366.84;5005182;28;20205;-52
2022/03/20 00:28:15;;;;;;;22.97;19.10;;;;;;;1.94;96.95;98366.75;4991543;28;20746;-52
2022/03/20 00:30:45;;;;;;;25.57;19.93;;;;;;;1.95;99.18;98366.63;4969503;28;20224;-51
2022/03/20 00:33:14;;;;;;;26.07;21.03;;;;;;;1.87;99.59;98364.50;5007533;28;20278;-51
2022/03/20 00:35:42;;;;;;;20.13;18.03;;;;;;;1.87;100.00;98364.50;5004831;28;20942;-49
2022/03/20 00:38:11;;;;;;;19.77;17.50;;;;;;;2.01;100.00;98360.16;4968041;28;20408;-48
2022/03/20 00:40:39;;;;;;;23.90;17.60;;;;;;;1.90;100.00;98366.09;5004249;28;20216;-49
2022/03/20 00:43:08;;;;;;;27.47;19.57;;;;;;;1.93;100.00;98354.63;4989396;28;20320;-49
2022/03/20 00:45:36;;;;;;;24.90;19.17;;;;;;;1.88;100.00;98362.75;4971039;28;20763;-59
2022/03/20 00:48:08;;;;;;;22.00;17.93;;;;;;;1.84;100.00;98363.88;5000961;28;21034;-49
2022/03/20 00:50:36;;;;;;;21.53;18.47;;;;;;;1.84;100.00;98364.72;5003164;28;20307;-50
2022/03/20 00:53:04;;;;;;;21.67;18.73;;;;;;;1.85;100.00;98352.50;4986279;28;20207;-48
2022/03/20 00:55:32;;;;;;;21.57;18.57;;;;;;;1.78;100.00;98356.44;4993644;28;20306;-51
2022/03/20 00:58:01;;;;;;;25.43;20.27;;;;;;;1.87;100.00;98350.63;5002961;28;20398;-48
2022/03/20 01:00:29;;;;;;;24.03;20.13;;;;;;;1.91;100.00;98351.25;4963077;28;20303;-48
2022/03/20 01:02:57;;;;;;;24.87;20.43;;;;;;;1.86;100.00;98352.38;5003535;28;20215;-53
2022/03/20 01:05:27;;;;;;;23.03;20.13;;;;;;;1.79;100.00;98345.06;5000818;28;20205;-50
2022/03/20 01:07:55;;;;;;;26.27;20.23;;;;;;;1.76;100.00;98351.31;4995535;28;20527;-51
2022/03/20 01:10:23;;;;;;;25.37;20.43;;;;;;;1.71;100.00;98350.78;4985466;28;20205;-50
2022/03/20 01:12:51;;;;;;;28.00;19.73;;;;;;;1.73;100.00;98352.34;5005488;28;20238;-50
2022/03/20 01:15:20;;;;;;;25.03;21.57;;;;;;;1.72;100.00;98349.81;4958205;28;20439;-49
2022/03/20 01:17:50;;;;;;;26.00;20.60;;;;;;;1.77;100.00;98346.94;5001574;28;20351;-51
2022/03/20 01:20:18;;;;;;;27.50;21.20;;;;;;;1.64;100.00;98339.03;5005692;28;20501;-52
2022/03/20 01:22:49;;;;;;;27.63;19.73;;;;;;;1.76;100.00;98338.25;5005351;28;20194;-52
2022/03/20 01:25:20;;;;;;;24.87;21.47;;;;;;;1.72;100.00;98342.00;5000896;28;20216;-48
2022/03/20 01:27:48;;;;;;;27.47;21.97;;;;;;;1.63;100.00;98330.34;4989651;28;20304;-53
2022/03/20 01:30:16;;;;;;;23.33;20.77;;;;;;;1.73;100.00;98341.06;4991972;28;20345;-51
2022/03/20 01:32:45;;;;;;;23.50;19.43;;;;;;;1.69;100.00;98342.19;4954284;28;20306;-50
2022/03/20 01:35:13;;;;;;;26.93;21.47;;;;;;;1.62;100.00;98341.75;5005409;28;20695;-49
2022/03/20 01:37:42;;;;;;;26.07;21.27;;;;;;;1.58;100.00;98332.44;4991214;28;20283;-52
2022/03/20 01:40:12;;;;;;;26.90;21.67;;;;;;;1.57;100.00;98338.59;4985367;28;20219;-51
2022/03/20 01:42:40;;;;;;;29.47;22.30;;;;;;;1.62;100.00;98346.97;4964406;28;20342;-52
2022/03/20 01:45:17;;;;;;;25.97;20.67;;;;;;;1.54;100.00;98331.81;5000850;28;20677;-52
2022/03/20 01:47:47;;;;;;;25.33;20.73;;;;;;;1.48;100.00;98334.78;4950276;28;21159;-50
2022/03/20 01:50:16;;;;;;;26.40;20.90;;;;;;;1.52;100.00;98344.13;4959021;28;20711;-52
2022/03/20 01:52:45;;;;;;;25.90;21.93;;;;;;;1.52;100.00;98345.88;5002974;28;20224;-49
2022/03/20 01:55:16;;;;;;;27.73;22.43;;;;;;;1.47;100.00;98332.28;4983249;28;20266;-51
2022/03/20 01:57:45;;;;;;;27.47;21.20;;;;;;;1.47;100.00;98340.94;4982308;28;20231;-54
2022/03/20 02:00:17;;;;;;;30.10;22.83;;;;;;;1.44;100.00;98334.16;5001957;28;20451;-54
2022/03/20 02:02:45;;;;;;;24.40;20.47;;;;;;;1.46;100.00;98339.28;4945955;28;20209;-53
2022/03/20 02:05:14;;;;;;;28.37;21.77;;;;;;;1.29;100.00;98333.34;4972978;28;20431;-53
2022/03/20 02:07:44;;;;;;;30.33;21.90;;;;;;;1.33;100.00;98334.00;5005028;28;20210;-57
2022/03/20 02:10:12;;;;;;;28.97;22.67;;;;;;;1.31;100.00;98330.63;4982479;28;20220;-52
2022/03/20 02:12:43;;;;;;;28.97;21.90;;;;;;;1.24;100.00;98329.34;4980956;28;20239;-49
2022/03/20 02:15:13;;;;;;;26.50;21.30;;;;;;;1.33;100.00;98320.97;4998661;28;20452;-52
2022/03/20 02:17:42;;;;;;;29.73;22.33;;;;;;;1.28;100.00;98323.00;4942625;28;20244;-49
2022/03/20 02:20:12;;;;;;;31.50;22.20;;;;;;;1.24;100.00;98324.97;4976766;28;20803;-51
2022/03/20 02:22:43;;;;;;;32.80;22.40;;;;;;;1.26;100.00;98324.88;5005323;28;20283;-50
2022/03/20 02:25:14;;;;;;;25.83;22.40;;;;;;;1.23;100.00;98314.63;4997529;28;20216;-54
2022/03/20 02:27:44;;;;;;;29.27;21.97;;;;;;;1.12;100.00;98308.31;4982971;28;20209;-52
2022/03/20 02:30:16;;;;;;;28.07;21.37;;;;;;;1.23;100.00;98330.28;4976952;28;20382;-51
2022/03/20 02:32:46;;;;;;;24.97;21.90;;;;;;;1.13;100.00;98330.88;4981471;28;20231;-52
2022/03/20 02:35:17;;;;;;;28.97;22.00;;;;;;;1.14;100.00;98332.53;4953264;28;20207;-51
2022/03/20 02:37:49;;;;;;;29.43;23.00;;;;;;;1.14;100.00;98322.09;5004470;28;20903;-52
2022/03/20 02:40:19;;;;;;;29.63;23.73;;;;;;;1.17;100.00;98330.69;5005488;28;20200;-49
2022/03/20 02:42:48;;;;;;;25.80;22.57;;;;;;;1.11;100.00;98317.06;4982462;28;20208;-54
2022/03/20 02:45:19;;;;;;;29.87;22.83;;;;;;;1.10;100.00;98331.06;4984905;28;20434;-51
2022/03/20 02:47:50;;;;;;;30.17;21.77;;;;;;;1.02;100.00;98322.88;4964522;28;20213;-54
2022/03/20 02:50:21;;;;;;;28.60;22.03;;;;;;;1.07;100.00;98338.22;4980701;28;20274;-50
2022/03/20 02:52:52;;;;;;;28.67;22.57;;;;;;;1.04;100.00;98330.59;4974410;28;20232;-56
2022/03/20 02:55:21;;;;;;;25.63;21.07;;;;;;;0.90;100.00;98321.00;5003464;28;20212;-50
2022/03/20 02:57:50;;;;;;;30.43;23.13;;;;;;;0.97;100.00;98335.38;4983566;28;20747;-53
2022/03/20 03:00:21;;;;;;;28.00;22.23;;;;;;;0.85;100.00;98332.56;4980544;28;20233;-51
2022/03/20 03:02:51;;;;;;;29.03;22.90;;;;;;;0.90;100.00;98332.31;4997882;28;20259;-55
2022/03/20 03:05:20;;;;;;;30.07;23.50;;;;;;;0.84;100.00;98338.72;4950854;28;20307;-54
2022/03/20 03:13:24;;;;;;;28.93;22.03;;;;;;;0.89;100.00;98329.78;4975543;28;20227;-54
2022/03/20 03:15:53;;;;;;;29.57;22.80;;;;;;;0.89;100.00;98330.63;4980721;28;20827;-56
2022/03/20 03:18:22;;;;;;;29.93;25.03;;;;;;;0.71;100.00;98329.97;4980508;28;21618;-53
2022/03/20 03:20:50;;;;;;;26.10;22.70;;;;;;;0.69;100.00;98344.88;4967126;28;20213;-55
2022/03/20 03:23:21;;;;;;;31.17;23.90;;;;;;;0.72;100.00;98340.31;4981957;28;21042;-54
2022/03/20 03:25:49;;;;;;;33.50;24.40;;;;;;;0.72;100.00;98349.91;4998417;28;20197;-54
2022/03/20 03:28:17;;;;;;;35.73;23.83;;;;;;;0.69;100.00;98353.53;5007607;28;20550;-52
2022/03/20 03:30:47;;;;;;;30.10;23.03;;;;;;;0.71;100.00;98354.28;4977025;28;20676;-52
2022/03/20 03:33:18;;;;;;;29.57;23.90;;;;;;;0.68;100.00;98356.25;4981954;28;20327;-52
2022/03/20 03:35:51;;;;;;;26.23;22.17;;;;;;;0.78;100.00;98354.75;4907139;28;20719;-51
2022/03/20 03:38:22;;;;;;;26.03;23.03;;;;;;;0.69;100.00;98360.53;4989801;28;20375;-55
2022/03/20 03:40:51;;;;;;;30.97;23.43;;;;;;;0.63;100.00;98356.53;5001194;28;20215;-52
2022/03/20 03:43:19;;;;;;;32.33;25.00;;;;;;;0.50;100.00;98347.75;5004639;28;20213;-54
2022/03/20 03:45:48;;;;;;;33.67;24.57;;;;;;;0.68;100.00;98346.63;4977152;28;20205;-49
2022/03/20 03:48:17;;;;;;;29.47;22.70;;;;;;;0.68;100.00;98356.25;4982146;28;20332;-55
2022/03/20 03:50:47;;;;;;;28.10;23.83;;;;;;;0.60;100.00;98354.09;4941134;28;20630;-49
2022/03/20 03:53:15;;;;;;;32.83;23.80;;;;;;;0.50;100.00;98326.91;4997305;28;20319;-52
2022/03/20 03:55:45;;;;;;;28.73;24.23;;;;;;;0.60;100.00;98358.50;4990068;28;20220;-49
2022/03/20 03:58:14;;;;;;;31.17;24.03;;;;;;;0.57;100.00;98347.31;5005110;28;20260;-52
2022/03/20 04:00:43;;;;;;;30.20;23.23;;;;;;;0.51;100.00;98350.25;4984435;28;21193;-48
2022/03/20 04:03:12;;;;;;;30.90;23.83;;;;;;;0.55;100.00;98351.75;4981092;28;20211;-51
2022/03/20 04:05:40;;;;;;;30.37;23.73;;;;;;;0.60;100.00;98353.28;4986195;28;20951;-50
2022/03/20 04:08:09;;;;;;;30.40;24.90;;;;;;;0.51;100.00;98349.44;4964741;28;20232;-55
2022/03/20 04:10:38;;;;;;;30.80;24.70;;;;;;;0.48;100.00;98363.50;4976619;28;20204;-50
2022/03/20 04:13:08;;;;;;;34.03;24.07;;;;;;;0.43;100.00;98355.97;5005074;28;20227;-53
2022/03/20 04:15:38;;;;;;;31.50;24.33;;;;;;;0.43;100.00;98361.16;4984342;28;20934;-54
2022/03/20 04:18:08;;;;;;;29.80;23.93;;;;;;;0.30;100.00;98347.16;4987556;28;20242;-53
2022/03/20 04:20:37;;;;;;;30.67;23.67;;;;;;;0.37;100.00;98358.91;5006516;28;20230;-57
2022/03/20 04:26:00;;;;;;;31.67;24.67;;;;;;;0.33;100.00;98360.00;4948576;28;20293;-56
2022/03/20 04:28:30;;;;;;;27.13;22.50;;;;;;;0.31;100.00;98354.06;4942376;28;20218;-57
2022/03/20 04:30:58;;;;;;;34.27;26.30;;;;;;;0.27;100.00;98363.84;4949614;28;20575;-53
2022/03/20 04:33:29;;;;;;;30.63;24.87;;;;;;;0.23;100.00;98344.09;4903158;28;20226;-53
2022/03/20 04:35:57;;;;;;;29.70;24.90;;;;;;;0.41;100.00;98362.19;4948831;28;20217;-55
2022/03/20 04:38:26;;;;;;;31.93;24.83;;;;;;;0.28;100.00;98360.31;4905306;28;20226;-51
2022/03/20 04:40:54;;;;;;;31.87;25.27;;;;;;;0.27;100.00;98368.19;4947117;28;20750;-51
2022/03/20 04:43:22;;;;;;;32.50;23.67;;;;;;;0.21;100.00;98359.00;4942334;28;20831;-51
2022/03/20 04:45:52;;;;;;;27.10;23.50;;;;;;;0.19;100.00;98366.06;4946662;28;20701;-54
2022/03/20 04:59:22;;;;;;;31.27;24.23;;;;;;;0.04;100.00;98380.81;4943073;28;20605;-51
2022/03/20 05:01:52;;;;;;;32.87;24.83;;;;;;;0.03;100.00;98383.50;4974011;28;20255;-53
2022/03/20 05:04:21;;;;;;;31.33;24.90;;;;;;;0.00;100.00;98381.91;4973117;28;20211;-52
2022/03/20 05:06:49;;;;;;;31.63;24.90;;;;;;;0.01;100.00;98385.34;5002022;28;20235;-53
2022/03/20 05:14:49;;;;;;;31.57;23.67;;;;;;;0.04;100.00;98395.59;5007100;28;20258;-52
2022/03/20 05:17:18;;;;;;;30.03;23.83;;;;;;;-0.03;100.00;98393.34;5004165;28;20321;-49
2022/03/20 05:19:47;;;;;;;30.10;24.17;;;;;;;-0.01;100.00;98394.09;4984295;28;20877;-51
2022/03/20 05:22:15;;;;;;;30.77;23.50;;;;;;;-0.03;100.00;98393.34;4982166;28;20595;-51
2022/03/20 05:24:43;;;;;;;30.97;23.67;;;;;;;-0.04;100.00;98407.31;4963407;28;20457;-53
2022/03/20 05:27:11;;;;;;;32.43;23.77;;;;;;;-0.05;100.00;98412.59;4997834;28;20327;-51
2022/03/20 05:29:40;;;;;;;32.00;25.20;;;;;;;-0.08;100.00;98418.81;5002034;28;20750;-55
2022/03/20 05:32:10;;;;;;;29.47;23.90;;;;;;;-0.07;100.00;98417.91;5004527;28;20305;-51
2022/03/20 05:34:39;;;;;;;28.67;21.83;;;;;;;0.03;100.00;98422.59;4978103;28;20672;-50
2022/03/20 05:37:08;;;;;;;30.57;23.93;;;;;;;-0.04;100.00;98422.09;4981069;28;20212;-51
2022/03/20 05:39:36;;;;;;;32.63;23.23;;;;;;;0.12;100.00;98432.47;4961307;28;20510;-54
2022/03/20 05:42:05;;;;;;;27.00;22.10;;;;;;;0.11;100.00;98425.59;5004605;28;20315;-53
2022/03/20 05:44:34;;;;;;;30.50;23.73;;;;;;;0.12;100.00;98428.13;4976917;28;20223;-54
2022/03/20 05:47:04;;;;;;;31.37;23.63;;;;;;;-0.02;100.00;98431.50;5002343;28;20284;-54
2022/03/20 05:49:32;;;;;;;29.40;23.33;;;;;;;-0.02;100.00;98428.91;4983638;28;20949;-52
2022/03/20 05:52:02;;;;;;;31.33;23.97;;;;;;;0.07;100.00;98437.13;4985354;28;20798;-54
2022/03/20 05:54:31;;;;;;;31.27;25.03;;;;;;;-0.01;100.00;98437.53;5001615;28;20232;-56
2022/03/20 05:59:44;;;;;;;28.90;23.17;;;;;;;0.27;100.00;98441.19;5002459;28;20245;-54
2022/03/20 06:02:13;;;;;;;29.87;24.47;;;;;;;0.25;100.00;98436.09;5005830;28;22426;-53
2022/03/20 06:04:41;;;;;;;30.37;24.63;;;;;;;1.81;100.00;98439.88;4993681;28;20258;-53
2022/03/20 06:07:11;;;;;;;28.70;24.70;;;;;;;2.89;100.00;98437.19;4979186;28;20227;-55
2022/03/20 06:09:39;;;;;;;34.87;24.27;;;;;;;4.07;100.00;98436.84;4985147;28;20771;-59
2022/03/20 06:12:09;;;;;;;33.27;25.43;;;;;;;4.76;99.04;98449.28;4997615;28;20207;-56
2022/03/20 06:14:38;;;;;;;27.13;24.20;;;;;;;3.13;100.00;98445.16;4993775;28;20624;-51
2022/03/20 06:17:09;;;;;;;29.13;23.33;;;;;;;2.17;100.00;98441.06;5001206;28;21106;-57
2022/03/20 06:19:38;;;;;;;29.80;24.00;;;;;;;1.99;100.00;98445.72;4990853;28;20232;-56
2022/03/20 06:22:07;;;;;;;33.67;29.13;;;;;;;1.72;100.00;98446.50;4982732;28;20445;-57
2022/03/20 06:24:36;;;;;;;32.53;24.90;;;;;;;1.51;100.00;98448.69;5002273;28;20299;-54
2022/03/20 06:27:05;;;;;;;33.10;23.53;;;;;;;1.47;100.00;98453.25;4969920;28;20215;-58
2022/03/20 06:29:33;;;;;;;31.60;25.30;;;;;;;1.46;100.00;98456.81;4999015;28;20242;-57
2022/03/20 06:32:01;;;;;;;28.40;23.47;;;;;;;1.60;100.00;98450.72;5004529;28;20299;-55
2022/03/20 06:34:29;;;;;;;30.60;22.90;;;;;;;1.64;100.00;98448.78;4989451;28;20695;-54
2022/03/20 06:36:59;;;;;;;26.43;22.07;;;;;;;1.75;100.00;98455.94;4984530;28;20582;-56
2022/03/20 06:39:27;;;;;;;27.83;21.83;;;;;;;1.81;100.00;98458.16;5007253;28;20239;-53
2022/03/20 06:41:57;;;;;;;29.37;21.87;;;;;;;1.99;100.00;98462.22;4971266;28;21069;-57
2022/03/20 06:44:25;;;;;;;27.43;22.10;;;;;;;1.94;100.00;98461.66;5007057;28;20283;-55
2022/03/20 06:46:54;;;;;;;26.97;23.17;;;;;;;2.05;100.00;98460.13;5002182;28;20212;-55
2022/03/20 06:49:23;;;;;;;25.23;20.13;;;;;;;2.15;100.00;98464.69;5004365;28;20259;-56
2022/03/20 06:51:51;;;;;;;28.13;23.83;;;;;;;2.24;100.00;98472.88;4986860;28;20227;-56
2022/03/20 06:54:20;;;;;;;29.13;22.17;;;;;;;2.16;100.00;98470.75;4982308;28;20319;-55
2022/03/20 06:56:48;;;;;;;23.77;20.83;;;;;;;2.27;100.00;98473.50;4962355;28;20201;-57
2022/03/20 06:59:18;;;;;;;24.83;19.90;;;;;;;2.37;100.00;98472.91;5000559;28;20259;-57
2022/03/20 07:01:47;;;;;;;27.90;20.83;;;;;;;2.64;100.00;98475.47;4997713;28;20204;-55
2022/03/20 07:04:15;;;;;;;27.50;22.50;;;;;;;2.68;100.00;98476.13;5003980;28;20193;-55
2022/03/20 07:06:43;;;;;;;26.83;21.50;;;;;;;2.93;100.00;98482.34;4986733;28;20856;-54
2022/03/20 07:09:11;;;;;;;23.83;20.83;;;;;;;2.87;100.00;98484.44;4982821;28;20234;-55
2022/03/20 07:11:40;;;;;;;21.83;18.03;;;;;;;3.19;100.00;98485.81;4982331;28;20316;-53
2022/03/20 07:14:08;;;;;;;27.88;21.98;;;;;;;3.30;100.00;98492.94;4996544;28;20458;-58
2022/03/20 07:16:38;;;;;;;25.60;20.47;;;;;;;3.36;100.00;98505.63;5003948;28;20295;-55
2022/03/20 07:19:09;;;;;;;23.20;19.80;;;;;;;3.46;100.00;98501.41;5003442;28;20236;-54
2022/03/20 07:21:37;;;;;;;26.63;22.10;;;;;;;3.68;100.00;98504.31;4999103;28;20200;-57
2022/03/20 07:24:06;;;;;;;24.97;20.27;;;;;;;3.68;100.00;98501.69;4975168;28;20215;-52
2022/03/20 07:29:32;;;;;;;24.20;20.10;;;;;;;4.03;100.00;98504.44;5003980;28;20318;-55
2022/03/20 07:32:04;;;;;;;21.53;18.57;;;;;;;4.04;100.00;98507.91;5003657;28;20592;-51
2022/03/20 07:34:32;;;;;;;24.83;20.33;;;;;;;4.47;95.61;98511.84;5004473;28;20227;-55
2022/03/20 07:37:01;;;;;;;23.27;20.40;;;;;;;5.67;80.51;98508.97;4986726;28;21069;-55
2022/03/20 07:39:29;;;;;;;25.80;21.13;;;;;;;6.94;68.89;98506.72;4983006;28;20809;-53
2022/03/20 07:41:57;;;;;;;25.43;21.77;;;;;;;8.03;61.74;98510.72;4999928;28;20435;-54
2022/03/20 07:44:26;;;;;;;27.17;22.65;;;;;;;7.88;59.39;98514.69;4969538;28;20449;-57
2022/03/20 07:46:54;;;;;;;23.60;20.53;;;;;;;8.43;57.87;98490.50;5005292;28;20208;-54
2022/03/20 07:49:24;;;;;;;22.93;19.47;;;;;;;9.50;53.06;98506.41;5006807;28;20260;-56
2022/03/20 07:51:53;;;;;;;24.50;20.03;;;;;;;7.02;58.86;98510.53;4988483;28;20330;-52
2022/03/20 07:54:21;;;;;;;24.57;20.40;;;;;;;6.13;66.04;98507.16;5008093;28;20242;-55
2022/03/20 07:56:49;;;;;;;22.60;19.47;;;;;;;6.02;69.50;98510.66;4980112;28;20246;-54
2022/03/20 07:59:18;;;;;;;22.47;20.13;;;;;;;5.89;69.42;98520.44;4966040;28;20232;-57
2022/03/20 08:01:46;;;;;;;24.53;21.03;;;;;;;5.74;71.58;98499.66;5005094;28;20299;-56
2022/03/20 08:04:14;;;;;;;21.57;19.27;;;;;;;5.32;74.35;98520.44;5006973;28;20255;-57
2022/03/20 08:06:44;;;;;;;21.57;19.30;;;;;;;5.59;72.09;98514.00;5004954;28;20835;-53
2022/03/20 08:09:12;;;;;;;24.57;19.60;;;;;;;5.30;76.82;98517.94;4989020;28;20228;-55
2022/03/20 08:11:40;;;;;;;22.70;19.93;;;;;;;5.34;76.46;98508.00;4975249;28;20217;-55
2022/03/20 08:14:09;;;;;;;22.87;19.83;;;;;;;5.53;74.72;98506.59;5002605;28;20288;-54
2022/03/20 08:16:38;;;;;;;22.33;19.40;;;;;;;5.75;73.18;98501.31;4969733;28;20279;-55
2022/03/20 08:19:08;;;;;;;21.03;18.80;;;;;;;6.07;71.21;98505.84;5007241;28;20885;-58
2022/03/20 08:21:38;;;;;;;21.83;18.73;;;;;;;6.27;69.07;98497.31;5004861;28;20263;-56
2022/03/20 08:24:08;;;;;;;24.03;19.17;;;;;;;6.40;68.49;98497.16;4991941;28;20873;-53
2022/03/20 08:26:38;;;;;;;22.83;19.33;;;;;;;6.23;66.71;98499.34;4998230;28;20429;-56
2022/03/20 08:29:08;;;;;;;22.43;17.83;;;;;;;6.67;66.25;98507.22;4992938;28;20224;-53
2022/03/20 08:31:36;;;;;;;24.00;18.13;;;;;;;6.77;65.77;98508.13;4969355;28;20581;-56
2022/03/20 08:34:05;;;;;;;22.43;18.63;;;;;;;7.04;64.45;98508.59;5001838;28;20208;-55
2022/03/20 08:36:34;;;;;;;23.90;18.50;;;;;;;6.91;63.74;98508.78;5005753;28;20224;-56
2022/03/20 08:39:03;;;;;;;20.70;17.27;;;;;;;7.34;62.40;98499.03;4976142;28;20454;-54
2022/03/20 08:41:33;;;;;;;19.40;17.30;;;;;;;7.09;62.04;98499.34;5007845;28;20787;-56
2022/03/20 08:44:02;;;;;;;20.60;17.83;;;;;;;7.45;61.49;98496.34;4960486;28;20635;-58
2022/03/20 08:46:30;;;;;;;19.93;17.67;;;;;;;7.19;61.50;98499.41;4999853;28;20238;-54
2022/03/20 08:49:03;;;;;;;19.83;17.00;;;;;;;7.72;59.97;98504.66;4983986;28;20362;-57
2022/03/20 08:51:32;;;;;;;21.10;17.57;;;;;;;7.53;58.61;98499.16;5002391;28;20204;-54
2022/03/20 08:54:01;;;;;;;19.50;16.37;;;;;;;7.67;58.28;98497.97;5000903;28;20224;-61
2022/03/20 08:56:29;;;;;;;20.17;17.03;;;;;;;7.76;57.93;98498.94;4986762;28;20234;-56
2022/03/20 08:58:59;;;;;;;19.73;17.27;;;;;;;7.73;56.25;98503.69;4961172;28;20352;-57
2022/03/20 09:01:27;;;;;;;21.53;17.67;;;;;;;7.54;55.62;98494.69;5002665;28;20469;-56
2022/03/20 09:03:55;;;;;;;17.80;15.83;;;;;;;7.68;54.31;98496.16;4960029;28;20223;-57
2022/03/20 09:06:24;;;;;;;17.93;16.00;;;;;;;7.76;55.55;98498.13;5007233;28;20280;-58
2022/03/20 09:08:53;;;;;;;16.20;14.63;;;;;;;8.23;54.25;98489.63;5002762;28;20616;-56
2022/03/20 09:11:22;;;;;;;16.90;15.23;;;;;;;8.09;53.72;98486.41;4992705;28;20205;-54
2022/03/20 09:13:50;;;;;;;22.90;17.53;;;;;;;8.34;53.09;98486.88;4992778;28;20309;-55
2022/03/20 09:19:07;;;;;;;17.23;15.13;;;;;;;8.47;52.74;98489.25;4964543;28;20247;-57
2022/03/20 09:21:37;;;;;;;17.17;14.20;;;;;;;8.58;53.18;98493.59;5001992;28;20208;-58
2022/03/20 09:24:06;;;;;;;17.23;15.57;;;;;;;8.64;52.18;98493.03;5005226;28;20431;-56
2022/03/20 09:26:35;;;;;;;18.17;15.70;;;;;;;8.92;51.10;98489.66;4987062;28;20299;-53
2022/03/20 09:29:03;;;;;;;19.17;17.27;;;;;;;8.93;50.95;98489.53;4996649;28;20228;-58
2022/03/20 09:31:34;;;;;;;18.87;16.40;;;;;;;8.80;50.64;98483.69;4981360;28;20212;-57
2022/03/20 09:34:08;;;;;;;17.80;15.90;;;;;;;9.16;51.83;98489.22;4962263;28;20846;-52
2022/03/20 09:36:37;;;;;;;18.27;16.03;;;;;;;9.06;50.81;98486.56;5005396;28;20283;-57
2022/03/20 09:39:06;;;;;;;18.73;15.73;;;;;;;8.71;51.00;98493.28;4987370;28;20764;-56
2022/03/20 09:41:34;;;;;;;18.30;16.33;;;;;;;8.79;51.42;98490.81;4989802;28;20966;-56
2022/03/20 09:44:05;;;;;;;16.50;14.70;;;;;;;8.65;51.81;98483.28;4999980;28;20213;-54
2022/03/20 09:46:36;;;;;;;16.90;15.23;;;;;;;8.92;50.61;98481.75;4980685;28;20822;-52
2022/03/20 09:49:06;;;;;;;18.13;15.13;;;;;;;8.83;50.76;98486.06;4958931;28;20923;-55
2022/03/20 09:51:35;;;;;;;18.50;15.77;;;;;;;8.85;50.50;98494.69;5004357;28;20212;-56
2022/03/20 09:54:04;;;;;;;20.97;16.93;;;;;;;8.89;51.01;98490.78;5002384;28;20231;-52
2022/03/20 09:56:32;;;;;;;17.73;15.47;;;;;;;8.96;50.00;98491.06;4985919;28;20239;-55
2022/03/20 09:59:00;;;;;;;17.83;16.03;;;;;;;9.02;50.78;98485.19;5002029;28;20947;-58
2022/03/20 10:01:29;;;;;;;16.67;15.00;;;;;;;9.39;50.02;98505.56;4978980;28;20227;-59
2022/03/20 10:04:12;;;;;;;14.77;13.27;;;;;;;9.66;49.13;98501.31;5000914;28;20228;-53
2022/03/20 10:06:41;;;;;;;18.37;14.13;;;;;;;9.92;48.18;98491.84;4968975;28;20215;-55
2022/03/20 10:09:11;;;;;;;15.83;14.27;;;;;;;9.48;47.71;98484.53;5001756;28;20772;-57
2022/03/20 10:11:48;;;;;;;16.57;14.87;;;;;;;9.59;48.95;98475.56;4990148;28;20303;-56
2022/03/20 10:14:18;;;;;;;15.90;14.30;;;;;;;9.74;48.71;98483.84;5004735;28;20867;-59
2022/03/20 10:16:49;;;;;;;17.57;15.10;;;;;;;9.73;48.20;98498.06;4983915;28;20317;-55
2022/03/20 10:19:32;;;;;;;17.97;14.90;;;;;;;9.79;47.42;98500.97;5001925;28;20240;-55
2022/03/20 10:22:06;;;;;;;15.77;14.07;;;;;;;9.91;47.13;98483.09;4971220;28;20201;-53
2022/03/20 10:24:37;;;;;;;15.57;13.93;;;;;;;9.94;46.78;98492.53;5004790;28;20592;-56
2022/03/20 10:27:15;;;;;;;14.97;13.47;;;;;;;9.83;47.20;98499.69;4992404;28;20334;-59
2022/03/20 10:29:51;;;;;;;14.13;12.77;;;;;;;10.02;46.22;98489.16;5007652;28;20237;-56
2022/03/20 10:32:20;;;;;;;17.17;13.80;;;;;;;10.09;45.78;98479.63;4997760;28;20243;-57
2022/03/20 10:34:56;;;;;;;16.80;14.83;;;;;;;10.47;45.56;98469.78;5019551;28;20214;-55
2022/03/20 10:37:46;;;;;;;14.37;12.97;;;;;;;10.45;44.39;98470.94;4991875;28;20237;-58
2022/03/20 10:40:16;;;;;;;18.07;13.90;;;;;;;10.47;45.32;98468.97;5021644;28;20618;-60
2022/03/20 10:42:45;;;;;;;14.47;12.93;;;;;;;10.69;44.89;98472.97;5017759;28;20204;-56
2022/03/20 10:45:13;;;;;;;15.00;13.33;;;;;;;10.81;44.44;98474.38;5024892;28;20214;-59
2022/03/20 10:47:41;;;;;;;15.23;12.93;;;;;;;10.71;44.64;98468.34;4993259;28;20211;-57
2022/03/20 10:50:11;;;;;;;15.83;13.87;;;;;;;10.88;45.14;98482.56;5021299;28;20223;-55
2022/03/20 10:52:40;;;;;;;16.23;13.93;;;;;;;10.85;44.65;98478.38;4994636;28;20203;-54
2022/03/20 10:55:10;;;;;;;16.77;13.63;;;;;;;10.91;44.49;98473.44;5012212;28;20565;-55
2022/03/20 10:57:39;;;;;;;14.97;13.47;;;;;;;11.16;44.29;98463.84;5020236;28;20327;-54
2022/03/20 11:00:10;;;;;;;14.33;12.93;;;;;;;10.77;44.00;98478.31;5019556;28;20208;-57
2022/03/20 11:02:40;;;;;;;16.30;14.43;;;;;;;11.02;43.77;98472.38;5004702;28;20760;-54
2022/03/20 11:05:11;;;;;;;16.40;14.83;;;;;;;10.93;43.87;98480.28;5022202;28;20306;-56
2022/03/20 11:07:40;;;;;;;16.90;15.10;;;;;;;11.11;43.24;98482.88;5000637;28;20203;-55
2022/03/20 11:10:14;;;;;;;19.20;17.27;;;;;;;11.26;43.43;98474.34;5019984;28;20310;-53
2022/03/20 11:12:43;;;;;;;15.23;13.67;;;;;;;11.22;43.12;98478.31;5023942;28;20207;-56
2022/03/20 11:15:12;;;;;;;13.33;12.03;;;;;;;11.04;42.70;98471.25;5026335;28;20207;-55
2022/03/20 11:17:43;;;;;;;14.20;12.77;;;;;;;10.99;42.33;98466.38;5011197;28;20231;-57
2022/03/20 11:20:14;;;;;;;16.03;13.27;;;;;;;11.10;41.92;98470.59;5026023;28;20239;-53
2022/03/20 11:22:48;;;;;;;14.37;12.87;;;;;;;10.85;43.01;98478.38;4993835;28;20208;-56
2022/03/20 11:25:20;;;;;;;14.33;12.90;;;;;;;11.39;42.23;98473.94;5024346;28;20295;-55
2022/03/20 11:27:53;;;;;;;14.37;12.87;;;;;;;11.20;41.70;98478.47;5023437;28;20411;-52
2022/03/20 11:30:25;;;;;;;13.87;12.50;;;;;;;11.32;41.18;98476.38;5026454;28;20211;-56
2022/03/20 11:32:53;;;;;;;13.83;12.53;;;;;;;11.62;42.45;98476.03;5023248;28;20207;-53
2022/03/20 11:35:28;;;;;;;13.10;11.80;;;;;;;11.65;40.88;98468.56;4999527;28;20241;-57
2022/03/20 11:37:59;;;;;;;17.90;13.60;;;;;;;11.95;41.46;98468.22;5024741;28;20231;-52
2022/03/20 11:40:30;;;;;;;13.73;12.33;;;;;;;11.78;41.08;98456.69;4986299;28;20362;-53
2022/03/20 11:43:20;;;;;;;13.57;11.67;;;;;;;11.94;41.99;98461.22;5024205;28;20646;-57
2022/03/20 11:46:21;;;;;;;13.40;12.07;;;;;;;11.75;42.12;98465.81;5020843;28;20298;-55
2022/03/20 11:49:21;;;;;;;14.47;12.93;;;;;;;12.15;40.82;98458.97;4996579;28;20227;-56
2022/03/20 11:51:55;;;;;;;13.83;12.53;;;;;;;12.26;41.60;98460.50;5025540;28;20500;-57
2022/03/20 11:54:30;;;;;;;14.40;12.90;;;;;;;11.76;42.20;98456.84;4990015;28;20235;-54
2022/03/20 11:57:00;;;;;;;13.43;12.13;;;;;;;11.86;42.34;98446.91;5023065;28;20865;-55
2022/03/20 11:59:47;;;;;;;13.20;11.90;;;;;;;11.70;41.76;98458.31;5023395;28;20238;-55
2022/03/20 12:02:27;;;;;;;14.37;12.33;;;;;;;12.04;41.74;98446.00;5027193;28;20583;-57
2022/03/20 12:05:03;;;;;;;14.40;13.00;;;;;;;12.00;40.93;98440.19;4997799;28;20726;-58